Quillacollo, Bolivia
Current Conditions -  °F | °C
As of 5:00 PM on Saturday 20 Dec 2014 (Local Time) from SLCB Reporting Station
Broken Clouds Broken Clouds  
Wind Chill: 77°   Ceiling: 20000
Heat Index: 78°   Visibility: 6mi
Dew Point: 50°   Wind: 10mph
Humidity: 39%   Direction: 230°SW
Pressure: 29.91"   Gusts: NA
Location:  17.4°S, 66.28°W
Report Text: SLCB 202100Z 23009KT 9999 FEW027 FEW030CB SCT080 BKN200 25/10 Q1013
Loading
Personal Weather Stations






























Interactive Weather Map New forecast layout! Learn more

10-Day Weather Forecast

Advertisements
Track Severe Weather on mobile